Time;durP1;ratioP1;P1;durP2;ratioP2;P2;SDS_P1;SDS_P2;PMS_P1;PMS_P2;Temp;Humidity;BMP_temperature;BMP_pressure;BME280_temperature;BME280_humidity;BME280_pressure;Samples;Min_cycle;Max_cycle;Signal;HPM_P1;HPM_P2
2021/06/30 00:01:21;;;;;;;0.60;0.50;;;;;;;20.79;53.09;98807.63;5019102;28;20229;-83
2021/06/30 00:03:53;;;;;;;0.60;0.60;;;;;;;20.66;53.53;98813.91;5034360;28;20231;-84
2021/06/30 00:06:24;;;;;;;0.40;0.40;;;;;;;20.71;53.04;98807.56;5021682;28;20261;-84
2021/06/30 00:08:56;;;;;;;0.30;0.30;;;;;;;20.73;52.97;98806.13;5038618;28;20226;-80
2021/06/30 00:11:28;;;;;;;1.50;0.50;;;;;;;20.76;52.52;98802.00;5054143;28;20214;-84
2021/06/30 00:14:00;;;;;;;1.10;0.50;;;;;;;20.61;53.12;98811.31;5038307;28;20231;-83
2021/06/30 00:16:32;;;;;;;1.47;0.50;;;;;;;20.47;53.65;98803.16;5037696;28;20229;-84
2021/06/30 00:19:06;;;;;;;1.07;0.40;;;;;;;20.49;53.56;98806.38;5055099;28;20237;-83
2021/06/30 00:21:38;;;;;;;0.50;0.50;;;;;;;20.56;52.95;98811.41;5053462;28;20234;-80
2021/06/30 00:24:10;;;;;;;1.20;0.60;;;;;;;20.63;52.33;98807.16;5018186;28;20291;-83
2021/06/30 00:26:42;;;;;;;1.47;0.57;;;;;;;20.56;52.59;98793.19;5018464;28;20219;-83
2021/06/30 00:29:14;;;;;;;0.50;0.50;;;;;;;20.59;52.94;98806.16;5034291;28;20227;-79
2021/06/30 00:31:47;;;;;;;0.97;0.43;;;;;;;20.59;52.60;98817.03;5039114;28;20218;-82
2021/06/30 00:34:19;;;;;;;0.40;0.40;;;;;;;20.73;51.75;98814.31;5033849;28;20238;-80
2021/06/30 00:36:50;;;;;;;1.60;0.47;;;;;;;20.89;51.08;98814.78;5002555;28;20284;-79
2021/06/30 00:39:22;;;;;;;0.60;0.57;;;;;;;20.78;51.39;98810.66;5033988;28;20531;-84
2021/06/30 00:41:57;;;;;;;1.33;0.50;;;;;;;20.82;51.00;98808.94;5037053;28;20583;-84
2021/06/30 00:44:33;;;;;;;0.50;0.50;;;;;;;20.88;50.83;98800.34;5033762;28;20280;-80
2021/06/30 00:47:05;;;;;;;0.43;0.43;;;;;;;21.09;50.32;98797.97;5018806;28;20222;-79
2021/06/30 00:49:38;;;;;;;0.40;0.40;;;;;;;20.96;50.67;98793.38;5034013;28;20220;-83
2021/06/30 00:52:10;;;;;;;0.40;0.40;;;;;;;20.84;51.00;98783.03;5043343;28;20271;-80
2021/06/30 00:54:36;;;;;;;1.23;0.50;;;;;;;20.98;50.88;98785.72;5019301;28;20716;-79
2021/06/30 00:57:09;;;;;;;1.00;0.60;;;;;;;20.90;51.21;98792.66;5034734;28;20226;-83
2021/06/30 00:59:40;;;;;;;0.73;0.40;;;;;;;20.68;52.14;98798.06;5027007;28;20636;-81
2021/06/30 01:02:12;;;;;;;0.50;0.50;;;;;;;20.57;52.42;98800.22;5024796;28;20228;-80
2021/06/30 01:04:44;;;;;;;1.00;0.60;;;;;;;20.57;51.10;98813.03;5053753;28;20239;-83
2021/06/30 01:07:16;;;;;;;0.57;0.40;;;;;;;20.66;51.77;98811.19;5053617;28;20230;-82
2021/06/30 01:09:48;;;;;;;0.70;0.40;;;;;;;20.49;52.52;98800.94;5053825;28;20230;-80
2021/06/30 01:12:19;;;;;;;0.53;0.50;;;;;;;20.37;52.99;98794.41;5052500;28;20222;-83
2021/06/30 01:14:51;;;;;;;1.17;0.50;;;;;;;20.15;53.64;98797.81;5053611;28;20226;-80
2021/06/30 01:17:23;;;;;;;0.70;0.50;;;;;;;20.16;53.29;98805.66;5054462;28;20314;-82
2021/06/30 01:19:55;;;;;;;0.73;0.43;;;;;;;20.02;54.33;98802.09;5053654;28;20233;-84
2021/06/30 01:22:27;;;;;;;2.07;0.93;;;;;;;19.75;55.03;98789.31;5050274;28;20651;-80
2021/06/30 01:24:58;;;;;;;0.77;0.60;;;;;;;19.53;55.79;98791.06;5053883;28;20223;-85
2021/06/30 01:27:32;;;;;;;0.67;0.50;;;;;;;19.46;55.60;98801.50;5053425;28;20233;-85
2021/06/30 01:30:06;;;;;;;1.03;0.50;;;;;;;19.40;56.24;98805.38;5037406;28;20236;-84
2021/06/30 01:32:37;;;;;;;0.43;0.43;;;;;;;19.14;56.83;98794.13;5035538;28;20230;-85
2021/06/30 01:35:04;;;;;;;0.67;0.50;;;;;;;19.20;56.71;98793.75;5036808;28;20237;-84
2021/06/30 01:37:47;;;;;;;1.00;0.50;;;;;;;19.14;56.75;98783.25;5053373;28;20534;-78
2021/06/30 01:40:19;;;;;;;0.60;0.50;;;;;;;19.18;57.03;98790.50;5053216;28;20237;-85
2021/06/30 01:42:55;;;;;;;0.43;0.43;;;;;;;19.24;55.77;98778.47;5035126;28;20241;-80
2021/06/30 01:45:27;;;;;;;0.70;0.50;;;;;;;19.21;56.70;98784.50;5053221;28;20229;-84
2021/06/30 01:47:59;;;;;;;0.47;0.47;;;;;;;19.06;56.85;98792.06;5037632;28;20633;-81
2021/06/30 01:50:31;;;;;;;0.40;0.40;;;;;;;19.15;56.61;98784.88;5055904;28;20245;-81
2021/06/30 01:53:04;;;;;;;1.43;0.50;;;;;;;19.18;56.63;98800.56;5056840;28;20214;-80
2021/06/30 01:55:37;;;;;;;0.40;0.40;;;;;;;18.97;57.04;98799.28;5025112;28;20244;-80
2021/06/30 01:58:08;;;;;;;1.13;0.50;;;;;;;19.02;56.52;98807.34;5056344;28;20221;-85
2021/06/30 02:00:40;;;;;;;0.50;0.40;;;;;;;18.94;56.42;98800.69;5040937;28;20244;-85
2021/06/30 02:03:12;;;;;;;0.50;0.50;;;;;;;19.02;56.09;98796.47;5024810;28;20245;-80
2021/06/30 02:05:44;;;;;;;0.40;0.40;;;;;;;19.09;55.05;98794.19;5025253;28;20230;-82
2021/06/30 02:08:17;;;;;;;0.40;0.37;;;;;;;19.43;53.35;98796.63;5055971;28;20221;-83
2021/06/30 02:10:49;;;;;;;0.43;0.43;;;;;;;19.57;52.91;98790.16;5056694;28;20233;-84
2021/06/30 02:13:21;;;;;;;0.57;0.50;;;;;;;19.71;52.05;98803.78;5056569;28;20249;-84
2021/06/30 02:15:52;;;;;;;0.50;0.50;;;;;;;19.70;52.43;98808.41;5042493;28;20240;-83
2021/06/30 02:18:24;;;;;;;0.60;0.40;;;;;;;19.82;51.81;98805.22;5040026;28;20226;-84
2021/06/30 02:20:56;;;;;;;0.30;0.30;;;;;;;19.85;51.84;98814.69;5057009;28;20222;-85
2021/06/30 02:23:28;;;;;;;0.50;0.40;;;;;;;19.96;51.39;98811.50;5057403;28;20226;-85
2021/06/30 02:25:59;;;;;;;1.07;0.50;;;;;;;19.82;51.81;98807.94;5036031;28;20310;-84
2021/06/30 02:28:31;;;;;;;0.40;0.40;;;;;;;19.86;52.08;98803.53;5037193;28;20314;-83
2021/06/30 02:30:59;;;;;;;1.10;0.40;;;;;;;19.86;51.86;98795.38;5039380;28;20229;-81
2021/06/30 02:33:31;;;;;;;0.40;0.40;;;;;;;19.77;52.42;98786.28;5040562;28;20663;-81
2021/06/30 02:36:03;;;;;;;0.50;0.50;;;;;;;19.84;51.74;98792.13;5023982;28;20533;-84
2021/06/30 02:38:35;;;;;;;0.40;0.40;;;;;;;19.79;52.08;98787.59;5056309;28;20227;-83
2021/06/30 02:41:07;;;;;;;0.40;0.40;;;;;;;19.79;52.07;98786.78;5055628;28;20321;-83
2021/06/30 02:43:39;;;;;;;0.30;0.30;;;;;;;19.85;51.84;98799.19;5055907;28;20230;-79
2021/06/30 02:46:10;;;;;;;0.40;0.40;;;;;;;19.74;52.21;98798.56;5020429;28;20226;-82
2021/06/30 02:48:42;;;;;;;0.63;0.40;;;;;;;19.72;52.03;98772.78;5036042;28;20262;-85
2021/06/30 02:51:14;;;;;;;0.50;0.50;;;;;;;19.89;51.41;98791.22;5039850;28;20213;-83
2021/06/30 02:53:46;;;;;;;1.33;0.40;;;;;;;19.77;51.98;98784.38;5055997;28;20628;-83
2021/06/30 02:56:21;;;;;;;2.73;0.50;;;;;;;19.72;52.39;98781.75;5055263;28;20594;-85
2021/06/30 02:58:52;;;;;;;0.47;0.47;;;;;;;19.74;52.02;98784.97;5036332;28;20237;-80
2021/06/30 03:01:24;;;;;;;0.40;0.40;;;;;;;19.87;51.53;98796.19;5035962;28;20230;-84
2021/06/30 03:03:56;;;;;;;1.10;0.40;;;;;;;20.00;51.13;98789.94;5035773;28;20218;-84
2021/06/30 03:06:27;;;;;;;1.30;0.50;;;;;;;20.10;51.00;98790.56;5047887;28;20237;-85
2021/06/30 03:08:59;;;;;;;0.40;0.40;;;;;;;19.96;51.37;98797.91;5038823;28;20312;-84
2021/06/30 03:11:26;;;;;;;0.50;0.50;;;;;;;19.93;51.92;98784.88;5055138;28;20228;-79
2021/06/30 03:13:58;;;;;;;0.73;0.50;;;;;;;19.81;52.08;98772.91;5055522;28;20233;-84
2021/06/30 03:16:30;;;;;;;0.67;0.67;;;;;;;19.88;52.53;98805.91;5024267;28;20229;-82
2021/06/30 03:19:01;;;;;;;0.60;0.60;;;;;;;19.72;53.17;98811.66;5048220;28;20229;-84
2021/06/30 03:21:28;;;;;;;0.50;0.50;;;;;;;19.60;53.75;98824.06;5032100;28;20237;-84
2021/06/30 03:24:00;;;;;;;2.57;0.70;;;;;;;19.49;54.26;98822.66;5039172;28;20261;-84
2021/06/30 03:26:32;;;;;;;1.23;0.43;;;;;;;19.44;54.42;98818.13;5052729;28;20227;-84
2021/06/30 03:29:04;;;;;;;0.70;0.50;;;;;;;19.42;54.67;98820.28;5038800;28;20225;-81
2021/06/30 03:31:36;;;;;;;0.67;0.40;;;;;;;19.33;55.07;98812.00;5055970;28;20719;-84
2021/06/30 03:34:02;;;;;;;0.50;0.50;;;;;;;19.43;55.08;98815.66;5037423;28;20278;-84
2021/06/30 03:36:29;;;;;;;3.90;0.70;;;;;;;19.30;55.18;98817.22;5054361;28;20267;-83
2021/06/30 03:39:01;;;;;;;1.03;0.67;;;;;;;19.27;55.76;98820.53;5038515;28;20303;-80
2021/06/30 03:41:32;;;;;;;1.97;0.73;;;;;;;19.15;56.14;98815.53;5054525;28;20232;-84
2021/06/30 03:44:04;;;;;;;0.70;0.60;;;;;;;19.28;55.78;98816.69;5022156;28;20246;-81
2021/06/30 03:46:36;;;;;;;0.60;0.60;;;;;;;19.24;56.35;98824.63;5036809;28;20214;-83
2021/06/30 03:49:08;;;;;;;1.23;0.50;;;;;;;19.27;56.44;98823.25;5054481;28;20217;-82
2021/06/30 03:51:35;;;;;;;0.70;0.70;;;;;;;19.11;57.08;98806.38;5053880;28;20275;-81
2021/06/30 03:54:08;;;;;;;0.60;0.60;;;;;;;19.21;56.72;98817.09;5038142;28;20625;-82
2021/06/30 03:56:40;;;;;;;1.23;0.50;;;;;;;19.25;56.52;98814.59;5038615;28;20218;-84
2021/06/30 03:59:12;;;;;;;1.57;0.80;;;;;;;19.39;56.53;98825.50;5053242;28;20225;-81
2021/06/30 04:01:44;;;;;;;2.77;0.80;;;;;;;19.40;56.28;98816.25;5054307;28;20225;-82
2021/06/30 04:04:16;;;;;;;0.50;0.50;;;;;;;19.89;55.11;98826.56;5054118;28;20555;-85
2021/06/30 04:06:48;;;;;;;0.93;0.60;;;;;;;20.93;51.91;98830.19;5053931;28;20222;-80
2021/06/30 04:09:20;;;;;;;0.57;0.53;;;;;;;21.82;49.06;98840.34;5033299;28;20660;-85
2021/06/30 04:11:51;;;;;;;0.93;0.70;;;;;;;21.97;48.23;98850.91;5033616;28;20993;-84
2021/06/30 04:14:23;;;;;;;0.50;0.50;;;;;;;22.28;47.90;98854.41;5033367;28;20233;-82
2021/06/30 04:16:55;;;;;;;1.43;0.70;;;;;;;22.70;46.70;98852.16;5020120;28;20523;-85
2021/06/30 04:19:27;;;;;;;0.63;0.63;;;;;;;22.91;46.22;98844.97;5037767;28;20230;-84
2021/06/30 04:21:58;;;;;;;1.27;0.70;;;;;;;22.94;46.17;98849.00;5055128;28;20221;-79
2021/06/30 04:24:30;;;;;;;0.60;0.50;;;;;;;22.66;45.76;98846.50;5053235;28;20249;-84
2021/06/30 04:27:02;;;;;;;0.63;0.50;;;;;;;22.81;44.96;98839.84;5037974;28;20302;-85
2021/06/30 04:29:33;;;;;;;0.77;0.50;;;;;;;23.31;43.92;98840.19;5037620;28;20252;-83
2021/06/30 04:32:05;;;;;;;0.60;0.50;;;;;;;23.55;42.67;98856.13;5037109;28;20338;-84
2021/06/30 04:34:37;;;;;;;0.90;0.53;;;;;;;24.22;41.65;98946.63;5054720;28;20230;-82
2021/06/30 04:37:09;;;;;;;1.67;0.70;;;;;;;24.95;40.01;98948.19;5054244;28;20232;-83
2021/06/30 04:39:40;;;;;;;0.90;0.63;;;;;;;25.29;39.19;98905.25;5034109;28;20220;-83
2021/06/30 04:42:12;;;;;;;3.27;0.97;;;;;;;24.92;39.77;98841.97;5033058;28;20233;-83
2021/06/30 04:44:45;;;;;;;7.17;0.90;;;;;;;23.80;42.42;98849.00;5017951;28;20229;-83
2021/06/30 04:47:16;;;;;;;1.90;0.70;;;;;;;23.43;43.53;98854.00;5049657;28;20220;-81
2021/06/30 04:49:48;;;;;;;0.80;0.70;;;;;;;23.08;44.21;98846.94;5032468;28;20220;-84
2021/06/30 04:52:20;;;;;;;3.53;0.70;;;;;;;22.65;45.19;98846.81;5033277;28;20274;-83
2021/06/30 04:54:52;;;;;;;0.73;0.60;;;;;;;22.72;45.17;98841.75;5047280;28;20293;-83
2021/06/30 04:57:23;;;;;;;1.67;0.50;;;;;;;22.77;45.15;98825.19;5053214;28;20396;-84
2021/06/30 04:59:55;;;;;;;0.50;0.50;;;;;;;22.88;44.49;98847.53;5021537;28;20239;-83
2021/06/30 05:02:27;;;;;;;0.73;0.40;;;;;;;23.22;44.36;98853.06;5043293;28;20226;-83
2021/06/30 05:04:58;;;;;;;2.30;0.70;;;;;;;23.25;44.58;98830.53;5031633;28;20234;-83
2021/06/30 05:07:30;;;;;;;0.60;0.60;;;;;;;23.23;43.92;98858.22;5037462;28;20221;-84
2021/06/30 05:09:57;;;;;;;0.60;0.60;;;;;;;23.35;43.84;98849.34;5051676;28;20234;-84
2021/06/30 05:12:29;;;;;;;1.27;0.60;;;;;;;23.63;43.40;98858.03;5032354;28;20716;-82
2021/06/30 05:15:00;;;;;;;0.73;0.40;;;;;;;23.54;43.37;98858.06;5046013;28;20555;-84
2021/06/30 05:17:32;;;;;;;1.53;0.60;;;;;;;23.60;43.19;98845.03;5009802;28;20225;-83
2021/06/30 05:19:59;;;;;;;1.53;0.50;;;;;;;23.89;43.09;98853.31;5041790;28;20217;-84
2021/06/30 05:22:30;;;;;;;1.73;0.63;;;;;;;23.77;42.91;98857.84;5031100;28;20225;-81
2021/06/30 05:25:03;;;;;;;1.52;0.60;;;;;;;23.89;42.97;98866.22;5045446;28;20229;-83
2021/06/30 05:27:35;;;;;;;2.03;0.60;;;;;;;23.72;43.08;98864.31;5035411;28;20240;-82
2021/06/30 05:30:07;;;;;;;1.58;0.63;;;;;;;23.72;42.74;98860.75;5049293;28;20233;-83
2021/06/30 05:32:39;;;;;;;0.50;0.50;;;;;;;23.61;43.05;98871.22;5040158;28;20645;-83
2021/06/30 05:35:11;;;;;;;1.80;0.60;;;;;;;23.62;43.02;98868.16;5041163;28;20241;-81
2021/06/30 05:37:42;;;;;;;0.40;0.40;;;;;;;23.48;43.42;98878.47;5040398;28;20222;-81
2021/06/30 05:40:14;;;;;;;0.95;0.50;;;;;;;23.51;43.45;98880.59;5054015;28;20329;-82
2021/06/30 05:42:42;;;;;;;1.33;0.60;;;;;;;23.55;43.45;98878.81;5025725;28;20271;-80
2021/06/30 05:45:17;;;;;;;1.08;0.50;;;;;;;23.50;43.27;98872.69;5040542;28;20232;-83
2021/06/30 05:47:50;;;;;;;0.90;0.60;;;;;;;23.42;43.51;98895.34;5056408;28;20228;-82
2021/06/30 05:50:21;;;;;;;1.63;0.68;;;;;;;23.34;43.41;98886.00;5056905;28;20228;-84
2021/06/30 05:52:53;;;;;;;0.60;0.60;;;;;;;23.27;43.54;98878.28;5040505;28;20229;-85
2021/06/30 05:55:25;;;;;;;1.40;0.60;;;;;;;22.99;44.01;98896.09;5057008;28;20221;-85
2021/06/30 05:57:57;;;;;;;1.43;0.60;;;;;;;23.06;44.35;98882.75;5040653;28;20216;-83
2021/06/30 06:00:29;;;;;;;0.75;0.75;;;;;;;23.25;44.42;98909.78;5024902;28;20305;-85
2021/06/30 06:03:01;;;;;;;0.60;0.60;;;;;;;23.00;44.03;98903.19;5021177;28;20629;-84
2021/06/30 06:05:32;;;;;;;1.77;0.50;;;;;;;23.01;43.98;98906.69;5045919;28;20228;-82
2021/06/30 06:08:04;;;;;;;1.67;0.60;;;;;;;22.70;44.61;98890.41;5039718;28;20220;-86
2021/06/30 06:10:36;;;;;;;1.00;0.47;;;;;;;22.95;45.00;98902.50;5035188;28;20221;-85
2021/06/30 06:13:03;;;;;;;0.57;0.57;;;;;;;23.00;44.45;98908.63;5054070;28;20238;-83
2021/06/30 06:15:30;;;;;;;1.97;0.70;;;;;;;22.85;44.56;98900.88;5022970;28;20248;-85
2021/06/30 06:18:02;;;;;;;0.60;0.60;;;;;;;23.22;43.65;98913.97;5055476;28;20209;-84
2021/06/30 06:20:28;;;;;;;2.40;0.57;;;;;;;23.39;43.55;98917.84;5038578;28;20218;-83
2021/06/30 06:23:00;;;;;;;0.80;0.65;;;;;;;23.52;43.65;98916.91;5040225;28;20248;-83
2021/06/30 06:25:32;;;;;;;2.80;0.70;;;;;;;23.57;43.90;98911.28;5055897;28;20569;-87
2021/06/30 06:27:58;;;;;;;1.38;0.60;;;;;;;23.72;44.07;98918.19;5038327;28;20288;-84
2021/06/30 06:30:29;;;;;;;0.98;0.60;;;;;;;23.81;43.53;98919.78;5030833;28;20234;-82
2021/06/30 06:33:01;;;;;;;1.25;0.70;;;;;;;23.90;43.41;98917.03;5047401;28;20652;-84
2021/06/30 06:35:32;;;;;;;0.50;0.50;;;;;;;23.93;41.98;98898.06;5039247;28;20520;-84
2021/06/30 06:38:04;;;;;;;1.45;0.60;;;;;;;23.89;42.42;98916.22;5034638;28;20218;-82
2021/06/30 06:40:38;;;;;;;0.68;0.50;;;;;;;23.96;42.34;98918.50;5049603;28;20229;-84
2021/06/30 06:43:09;;;;;;;0.47;0.47;;;;;;;23.92;42.68;98912.88;5039538;28;20226;-86
2021/06/30 06:45:36;;;;;;;1.52;0.60;;;;;;;24.20;42.55;98920.72;5052790;28;20531;-80
2021/06/30 06:48:08;;;;;;;1.58;0.70;;;;;;;24.04;42.48;98918.47;5046166;28;20295;-82
2021/06/30 06:50:40;;;;;;;1.60;0.80;;;;;;;24.09;41.93;98923.78;5021913;28;20561;-85
2021/06/30 06:53:09;;;;;;;0.70;0.70;;;;;;;23.87;42.33;98910.28;5046747;28;20220;-85
2021/06/30 06:55:41;;;;;;;1.50;0.70;;;;;;;24.06;42.59;98923.63;5039514;28;20238;-87
2021/06/30 06:58:13;;;;;;;2.00;0.63;;;;;;;24.01;42.33;98926.53;5055267;28;20255;-86
2021/06/30 07:00:45;;;;;;;2.17;0.70;;;;;;;23.88;42.96;98933.78;5037090;28;20228;-84
2021/06/30 07:03:16;;;;;;;0.70;0.70;;;;;;;23.81;42.63;98928.00;5036002;28;20244;-86
2021/06/30 07:05:48;;;;;;;1.33;0.75;;;;;;;23.68;43.47;98931.72;5055271;28;20230;-86
2021/06/30 07:08:20;;;;;;;0.68;0.68;;;;;;;23.69;43.44;98925.13;5054670;28;20563;-82
2021/06/30 07:10:51;;;;;;;1.00;0.65;;;;;;;23.75;44.04;98931.25;5055465;28;20253;-82
2021/06/30 07:13:23;;;;;;;0.60;0.60;;;;;;;23.70;43.89;98932.97;5055725;28;20234;-86
2021/06/30 07:15:55;;;;;;;1.23;0.60;;;;;;;23.71;43.82;98928.31;5055578;28;20237;-85
2021/06/30 07:18:26;;;;;;;0.60;0.60;;;;;;;23.59;44.23;98923.50;5038348;28;20217;-86
2021/06/30 07:20:59;;;;;;;0.60;0.60;;;;;;;23.73;44.34;98926.06;5038596;28;20225;-85
2021/06/30 07:23:31;;;;;;;0.77;0.77;;;;;;;23.60;44.21;98916.94;5044321;28;20897;-85
2021/06/30 07:26:04;;;;;;;0.85;0.85;;;;;;;23.59;44.48;98928.97;5042835;28;20656;-85
2021/06/30 07:28:36;;;;;;;0.70;0.70;;;;;;;23.56;44.86;98926.09;5023882;28;20625;-85
2021/06/30 07:31:08;;;;;;;0.70;0.70;;;;;;;23.56;44.49;98917.88;5017801;28;20220;-82
2021/06/30 07:33:41;;;;;;;0.70;0.70;;;;;;;23.52;44.21;98925.09;5028584;28;20237;-81
2021/06/30 07:36:14;;;;;;;0.88;0.70;;;;;;;23.61;45.33;98926.72;5010202;28;20228;-85
2021/06/30 07:38:46;;;;;;;1.10;0.70;;;;;;;23.70;44.28;98929.47;5019682;28;20232;-84
2021/06/30 07:41:12;;;;;;;1.42;0.70;;;;;;;23.44;44.15;98934.09;5033288;28;20218;-85
2021/06/30 07:43:44;;;;;;;2.25;0.60;;;;;;;23.42;44.04;98923.47;5053606;28;20218;-86
2021/06/30 07:46:10;;;;;;;0.90;0.70;;;;;;;23.67;43.54;98911.75;5036958;28;20518;-84
2021/06/30 07:48:38;;;;;;;0.60;0.60;;;;;;;23.81;43.55;98946.34;5030604;28;20230;-83
2021/06/30 07:51:04;;;;;;;0.70;0.70;;;;;;;23.92;43.45;98942.16;5042672;28;20229;-84
2021/06/30 07:53:32;;;;;;;1.75;0.70;;;;;;;23.75;43.49;98945.69;5035092;28;20493;-85
2021/06/30 07:56:00;;;;;;;1.05;0.60;;;;;;;23.90;43.08;98941.66;5036183;28;20233;-84
2021/06/30 07:58:26;;;;;;;3.25;0.70;;;;;;;23.93;42.42;98947.31;5036954;28;20242;-83
2021/06/30 08:00:53;;;;;;;0.88;0.70;;;;;;;23.91;43.05;98929.59;5054244;28;20724;-85
2021/06/30 08:03:21;;;;;;;0.98;0.80;;;;;;;24.20;42.47;98942.63;5054167;28;20232;-85
2021/06/30 08:05:47;;;;;;;2.58;0.75;;;;;;;23.76;42.78;98952.78;5037801;28;20245;-82
2021/06/30 08:08:14;;;;;;;3.30;0.80;;;;;;;24.09;42.20;98953.06;5037213;28;20224;-86
2021/06/30 08:10:41;;;;;;;2.40;0.60;;;;;;;24.24;42.90;98960.00;5037473;28;20222;-85
2021/06/30 08:13:08;;;;;;;1.40;0.70;;;;;;;24.40;42.62;98950.16;5037112;28;20574;-85
2021/06/30 08:15:34;;;;;;;0.75;0.75;;;;;;;24.39;41.90;98956.75;5053927;28;20559;-87
2021/06/30 08:18:01;;;;;;;1.13;0.80;;;;;;;24.71;41.24;98949.88;5020955;28;20309;-83
2021/06/30 08:20:28;;;;;;;1.77;0.80;;;;;;;24.86;40.93;98950.16;5020752;28;20231;-86
2021/06/30 08:22:55;;;;;;;1.35;0.90;;;;;;;25.12;40.82;98951.94;5037766;28;20221;-83
2021/06/30 08:25:24;;;;;;;2.33;1.00;;;;;;;25.36;40.62;98958.41;5053854;28;20236;-87
2021/06/30 08:27:52;;;;;;;1.83;0.73;;;;;;;25.38;40.60;98936.16;5053999;28;20648;-86
2021/06/30 08:30:19;;;;;;;3.33;1.17;;;;;;;25.42;40.61;98962.56;5036999;28;20268;-83
2021/06/30 08:32:47;;;;;;;1.13;0.77;;;;;;;25.37;40.93;98953.72;5054786;28;20649;-86
2021/06/30 08:35:14;;;;;;;2.55;0.65;;;;;;;25.26;40.54;98971.69;5054837;28;20310;-86
2021/06/30 08:37:44;;;;;;;1.77;0.73;;;;;;;25.19;41.02;98971.41;5040428;28;20254;-86
2021/06/30 08:40:12;;;;;;;0.80;0.80;;;;;;;25.07;41.25;98974.84;5017568;28;20232;-84
2021/06/30 08:42:40;;;;;;;0.68;0.68;;;;;;;25.07;40.60;98966.63;5017465;28;20313;-86
2021/06/30 08:45:08;;;;;;;0.80;0.80;;;;;;;25.13;40.57;98968.06;5017469;28;20367;-86
2021/06/30 08:47:35;;;;;;;1.48;0.80;;;;;;;25.03;41.00;98971.16;5035171;28;20525;-86
2021/06/30 08:50:06;;;;;;;1.88;0.80;;;;;;;24.34;41.96;98970.59;5017123;28;20309;-84
2021/06/30 08:52:35;;;;;;;1.80;0.75;;;;;;;24.93;40.77;98979.75;5033544;28;20629;-81
2021/06/30 08:55:03;;;;;;;2.08;0.88;;;;;;;24.73;40.78;98981.25;5033605;28;20260;-87
2021/06/30 08:57:32;;;;;;;2.88;0.85;;;;;;;24.81;40.94;98985.91;5017413;28;20641;-85
2021/06/30 08:59:59;;;;;;;1.67;1.00;;;;;;;25.28;40.45;98974.91;5021501;28;20229;-84
2021/06/30 09:02:26;;;;;;;1.80;0.80;;;;;;;25.53;40.00;98998.59;5021070;28;20625;-86
2021/06/30 09:05:10;;;;;;;1.98;0.88;;;;;;;25.57;39.84;98985.84;5005011;28;20277;-87
2021/06/30 09:07:38;;;;;;;1.42;0.95;;;;;;;25.49;39.54;98972.19;5035855;28;20656;-85
2021/06/30 09:10:05;;;;;;;2.05;0.70;;;;;;;25.54;39.76;98981.03;5040839;28;20256;-87
2021/06/30 09:12:39;;;;;;;1.38;0.90;;;;;;;25.52;39.22;98969.59;5024508;28;20612;-85
2021/06/30 09:15:17;;;;;;;1.35;0.80;;;;;;;25.49;40.01;98975.72;5040930;28;20277;-85
2021/06/30 09:17:47;;;;;;;1.08;0.80;;;;;;;25.69;39.38;98961.25;5057110;28;20224;-86
2021/06/30 09:20:14;;;;;;;2.22;0.90;;;;;;;25.22;39.89;98988.00;5058343;28;20316;-85
2021/06/30 09:22:52;;;;;;;0.70;0.70;;;;;;;25.52;39.66;98977.81;5040951;28;20233;-83
2021/06/30 09:25:30;;;;;;;0.90;0.80;;;;;;;25.75;39.20;98975.56;5058299;28;20286;-85
2021/06/30 09:27:57;;;;;;;0.90;0.90;;;;;;;25.76;39.45;98988.94;5057245;28;20229;-86
2021/06/30 09:30:24;;;;;;;0.80;0.80;;;;;;;25.90;39.24;98977.69;5040231;28;20229;-82
2021/06/30 09:32:57;;;;;;;1.88;1.10;;;;;;;25.65;39.62;98984.22;5057233;28;20625;-86
2021/06/30 09:35:35;;;;;;;1.40;0.90;;;;;;;25.37;40.69;98983.88;5057337;28;20237;-82
2021/06/30 09:38:33;;;;;;;1.15;0.95;;;;;;;25.62;40.12;98990.34;5056546;28;20236;-87
2021/06/30 09:41:00;;;;;;;1.83;0.90;;;;;;;26.24;39.03;98973.84;5056897;28;20227;-83
2021/06/30 09:43:33;;;;;;;1.33;0.80;;;;;;;26.50;38.09;98990.84;5056903;28;20238;-87
2021/06/30 09:46:25;;;;;;;3.42;0.88;;;;;;;26.22;38.42;98979.69;5040397;28;20237;-88
2021/06/30 09:48:56;;;;;;;1.80;0.93;;;;;;;26.32;38.43;98986.69;5021175;28;20227;-87
2021/06/30 09:51:23;;;;;;;1.35;0.90;;;;;;;26.48;38.16;98984.09;5036880;28;20533;-82
2021/06/30 09:53:51;;;;;;;1.73;0.98;;;;;;;26.53;38.34;98983.91;5004486;28;20226;-82
2021/06/30 09:56:35;;;;;;;1.85;0.90;;;;;;;26.90;38.15;98982.84;5019674;28;20525;-87
2021/06/30 09:59:09;;;;;;;2.75;1.10;;;;;;;26.94;37.68;98985.69;5006167;28;20233;-86
2021/06/30 10:01:37;;;;;;;1.23;0.95;;;;;;;27.25;36.72;98977.66;5036593;28;20231;-83
2021/06/30 10:04:04;;;;;;;1.58;1.10;;;;;;;27.54;36.60;98987.63;5036199;28;20317;-87
2021/06/30 10:06:34;;;;;;;1.27;1.15;;;;;;;27.29;36.98;98984.09;5004008;28;20516;-87
2021/06/30 10:09:05;;;;;;;2.05;1.38;;;;;;;27.15;37.46;98975.41;5019602;28;20243;-88
2021/06/30 10:11:34;;;;;;;3.58;1.50;;;;;;;27.29;36.76;98970.34;5033797;28;20640;-86
2021/06/30 10:14:02;;;;;;;2.20;1.50;;;;;;;27.20;38.18;98980.66;5028565;28;20292;-85
2021/06/30 10:16:29;;;;;;;1.98;1.23;;;;;;;27.34;36.74;98967.34;5005651;28;20232;-83
2021/06/30 10:18:58;;;;;;;1.92;1.42;;;;;;;27.47;36.88;98977.19;5023958;28;20236;-86
2021/06/30 10:21:27;;;;;;;2.53;1.30;;;;;;;27.59;36.46;98971.69;5003711;28;20339;-85
2021/06/30 10:23:53;;;;;;;3.95;1.38;;;;;;;27.83;35.70;98964.50;5020227;28;20239;-88
2021/06/30 10:26:21;;;;;;;1.40;1.30;;;;;;;27.41;36.23;98972.25;5003385;28;20231;-82
2021/06/30 10:28:56;;;;;;;1.20;1.10;;;;;;;27.16;36.82;98961.28;5019896;28;20263;-89
2021/06/30 10:31:23;;;;;;;1.52;1.42;;;;;;;27.04;37.26;98952.25;5026188;28;20635;-84
2021/06/30 10:34:05;;;;;;;1.70;1.30;;;;;;;27.31;36.81;98968.03;5055997;28;20229;-84
2021/06/30 10:36:52;;;;;;;2.05;1.40;;;;;;;27.18;36.31;98960.94;5055167;28;20536;-81
2021/06/30 10:39:39;;;;;;;2.10;1.20;;;;;;;26.94;37.40;98966.44;5055732;28;20227;-82
2021/06/30 10:42:38;;;;;;;1.35;1.25;;;;;;;26.86;37.33;98968.19;5055518;28;20652;-83
2021/06/30 10:45:16;;;;;;;2.67;1.30;;;;;;;26.81;36.99;98973.06;5048027;28;20239;-82
2021/06/30 10:47:55;;;;;;;2.80;1.60;;;;;;;26.86;37.08;98964.63;5056910;28;20367;-79
2021/06/30 10:50:41;;;;;;;2.35;1.42;;;;;;;27.13;36.96;98966.69;5055427;28;20237;-85
2021/06/30 10:53:12;;;;;;;1.30;1.20;;;;;;;26.99;37.36;98977.22;5055758;28;20641;-81
2021/06/30 10:55:41;;;;;;;1.63;1.30;;;;;;;26.85;37.27;98962.97;5055665;28;20263;-85
2021/06/30 10:58:14;;;;;;;2.35;1.40;;;;;;;27.19;36.83;98962.56;5054855;28;20239;-85
2021/06/30 11:00:42;;;;;;;1.45;1.35;;;;;;;27.09;36.98;98957.53;5056592;28;20225;-80
2021/06/30 11:03:21;;;;;;;1.25;1.25;;;;;;;27.22;36.48;98952.81;5038905;28;20234;-83
2021/06/30 11:05:48;;;;;;;2.45;1.10;;;;;;;27.59;36.45;98952.41;5038916;28;20239;-85
2021/06/30 11:08:37;;;;;;;1.30;1.20;;;;;;;27.61;35.41;98941.06;5054783;28;20534;-81
2021/06/30 11:11:04;;;;;;;2.05;1.10;;;;;;;27.40;36.18;98929.38;5055442;28;20648;-82
2021/06/30 11:14:06;;;;;;;3.22;1.33;;;;;;;26.93;36.56;98946.41;5055371;28;20245;-83
2021/06/30 11:16:48;;;;;;;1.30;1.20;;;;;;;26.67;37.65;98937.66;5038303;28;20232;-78
2021/06/30 11:19:15;;;;;;;1.58;1.45;;;;;;;26.53;37.68;98940.75;5054283;28;20303;-79
2021/06/30 11:22:03;;;;;;;2.17;1.30;;;;;;;26.22;37.95;98930.25;5050427;28;20248;-80
2021/06/30 11:24:33;;;;;;;1.48;1.30;;;;;;;26.09;38.27;98923.09;5027871;28;20223;-79
2021/06/30 11:27:10;;;;;;;1.55;1.40;;;;;;;26.28;38.64;98928.91;5055806;28;20228;-83
2021/06/30 11:29:48;;;;;;;2.28;1.40;;;;;;;26.41;38.00;98906.97;5052851;28;20220;-84
2021/06/30 11:32:38;;;;;;;1.83;1.17;;;;;;;26.63;37.54;98920.28;5045429;28;20235;-82
2021/06/30 11:35:08;;;;;;;2.22;1.20;;;;;;;27.03;37.77;98931.41;5044780;28;20231;-83
2021/06/30 11:37:43;;;;;;;2.13;1.38;;;;;;;27.09;36.56;98919.84;5053754;28;20277;-84
2021/06/30 11:40:20;;;;;;;2.42;1.40;;;;;;;27.05;37.01;98907.94;5033986;28;20620;-84
2021/06/30 11:42:50;;;;;;;1.55;1.30;;;;;;;27.26;35.98;98907.75;5045469;28;20236;-84
2021/06/30 11:45:33;;;;;;;1.20;1.10;;;;;;;27.57;36.43;98916.22;5055474;28;20320;-82
2021/06/30 11:48:05;;;;;;;2.42;1.13;;;;;;;27.63;35.10;98916.75;5054783;28;20283;-79
2021/06/30 11:50:53;;;;;;;4.35;1.50;;;;;;;27.75;34.35;98911.22;5037850;28;20225;-79
2021/06/30 11:53:52;;;;;;;2.05;0.98;;;;;;;27.28;34.84;98915.69;5037803;28;20243;-83
2021/06/30 11:56:31;;;;;;;2.08;1.05;;;;;;;27.58;34.41;98908.75;5043215;28;20242;-79